createdAt,value
2022-08-17T00:02:30.305Z,20.99
2022-08-17T00:05:45.257Z,20.94
2022-08-17T00:08:53.811Z,20.90
2022-08-17T00:12:43.430Z,20.92
2022-08-17T00:15:21.577Z,20.93
2022-08-17T00:19:01.748Z,20.96
2022-08-17T00:22:33.213Z,20.98
2022-08-17T00:25:15.013Z,20.92
2022-08-17T00:28:17.674Z,21.01
2022-08-17T00:31:21.759Z,20.97
2022-08-17T00:34:25.309Z,20.99
2022-08-17T00:37:30.707Z,20.96
2022-08-17T00:40:40.713Z,20.99
2022-08-17T00:43:54.848Z,20.95
2022-08-17T00:46:57.345Z,20.98
2022-08-17T00:50:00.444Z,20.96
2022-08-17T00:53:05.051Z,20.95
2022-08-17T00:56:14.525Z,20.89
2022-08-17T00:59:21.697Z,21.13
2022-08-17T01:02:24.849Z,20.94
2022-08-17T01:05:30.990Z,20.82
2022-08-17T01:08:35.772Z,20.76
2022-08-17T01:11:39.502Z,20.59
2022-08-17T01:14:42.288Z,20.59
2022-08-17T01:17:46.460Z,20.64
2022-08-17T01:20:53.717Z,20.67
2022-08-17T01:23:56.817Z,20.60
2022-08-17T01:26:59.821Z,20.51
2022-08-17T01:30:57.777Z,20.40
2022-08-17T01:33:30.593Z,20.47
2022-08-17T01:36:33.086Z,20.44
2022-08-17T01:39:45.098Z,20.33
2022-08-17T01:42:56.809Z,20.29
2022-08-17T01:46:02.639Z,20.20
2022-08-17T01:49:08.918Z,20.18
2022-08-17T01:52:12.680Z,20.15
2022-08-17T01:55:23.403Z,20.08
2022-08-17T01:58:28.729Z,20.07
2022-08-17T02:01:33.775Z,20.03
2022-08-17T02:04:36.658Z,20.03
2022-08-17T02:07:56.015Z,20.05
2022-08-17T02:11:11.576Z,20.04
2022-08-17T02:14:14.557Z,20.05
2022-08-17T02:17:17.368Z,20.03
2022-08-17T02:20:41.684Z,20.01
2022-08-17T02:23:47.668Z,19.97
2022-08-17T02:26:50.368Z,19.86
2022-08-17T02:29:53.953Z,19.79
2022-08-17T02:32:56.710Z,19.80
2022-08-17T02:35:59.485Z,19.81
2022-08-17T02:39:07.636Z,19.81
2022-08-17T02:42:10.412Z,19.82
2022-08-17T02:45:16.094Z,19.75
2022-08-17T02:48:30.778Z,19.74
2022-08-17T02:51:35.273Z,19.73
2022-08-17T02:54:41.056Z,19.70
2022-08-17T02:57:45.020Z,19.69
2022-08-17T03:00:48.598Z,19.86
2022-08-17T03:03:51.169Z,19.75
2022-08-17T03:06:53.951Z,19.70
2022-08-17T03:09:56.449Z,19.68
2022-08-17T03:12:59.724Z,19.68
2022-08-17T03:16:02.241Z,19.75
2022-08-17T03:19:05.236Z,19.73
2022-08-17T03:22:36.456Z,19.62
2022-08-17T03:25:35.663Z,19.54
2022-08-17T03:28:39.065Z,19.52
2022-08-17T03:31:41.825Z,19.48
2022-08-17T03:34:44.343Z,19.44
2022-08-17T03:37:47.340Z,19.42
2022-08-17T03:41:00.062Z,19.39
2022-08-17T03:44:03.803Z,19.29
2022-08-17T03:47:24.840Z,19.22
2022-08-17T03:50:47.595Z,19.21
2022-08-17T03:54:17.166Z,19.18
2022-08-17T03:57:20.353Z,19.21
2022-08-17T04:00:23.173Z,19.17
2022-08-17T04:03:25.975Z,19.22
2022-08-17T04:06:28.746Z,19.23
2022-08-17T04:09:31.658Z,19.27
2022-08-17T04:12:50.581Z,19.35
2022-08-17T04:15:54.220Z,19.39
2022-08-17T04:18:57.008Z,19.33
2022-08-17T04:21:59.775Z,19.36
2022-08-17T04:25:22.323Z,19.33
2022-08-17T04:28:25.167Z,19.43
2022-08-17T04:31:27.867Z,19.51
2022-08-17T04:34:30.688Z,19.54
2022-08-17T04:37:33.182Z,19.64
2022-08-17T04:40:54.738Z,19.74
2022-08-17T04:43:58.615Z,19.92
2022-08-17T04:47:01.506Z,20.06
2022-08-17T04:50:04.436Z,20.22
2022-08-17T04:53:07.646Z,20.29
2022-08-17T04:56:16.970Z,20.36
2022-08-17T04:59:22.451Z,20.48
2022-08-17T05:02:24.945Z,20.67
2022-08-17T05:05:31.114Z,20.89
2022-08-17T05:08:33.729Z,21.11
2022-08-17T05:11:37.413Z,21.18
2022-08-17T05:14:39.903Z,21.26
2022-08-17T05:17:43.485Z,21.30
2022-08-17T05:20:46.753Z,21.40
2022-08-17T05:23:50.472Z,21.45
2022-08-17T05:27:01.396Z,21.59
2022-08-17T05:30:09.299Z,21.73
2022-08-17T05:33:16.569Z,21.94
2022-08-17T05:36:41.592Z,22.02
2022-08-17T05:39:42.060Z,22.20
2022-08-17T05:42:44.809Z,22.45
2022-08-17T05:46:05.520Z,22.64
2022-08-17T05:49:09.575Z,22.84
2022-08-17T05:52:25.697Z,22.97
2022-08-17T05:55:58.446Z,23.09
2022-08-17T05:59:27.950Z,23.23
2022-08-17T06:03:04.463Z,23.41
2022-08-17T06:06:13.135Z,23.55
2022-08-17T06:09:30.260Z,23.76
2022-08-17T06:12:59.697Z,23.80
2022-08-17T06:16:04.371Z,23.91
2022-08-17T06:19:38.408Z,24.11
2022-08-17T06:22:52.565Z,24.32
2022-08-17T06:26:03.724Z,24.51
2022-08-17T06:29:25.181Z,24.77
2022-08-17T06:32:29.380Z,24.85
2022-08-17T06:35:47.622Z,24.93
2022-08-17T06:38:55.681Z,25.14
2022-08-17T06:42:54.983Z,24.92
2022-08-17T06:45:49.097Z,24.75
2022-08-17T06:49:13.931Z,24.68
2022-08-17T06:52:42.173Z,24.75
2022-08-17T06:55:52.353Z,24.82
2022-08-17T06:58:57.782Z,24.97
2022-08-17T07:02:05.632Z,25.13
2022-08-17T07:05:09.716Z,25.34
2022-08-17T07:08:35.253Z,25.64
2022-08-17T07:11:51.834Z,25.71
2022-08-17T07:15:17.416Z,25.84
2022-08-17T07:18:21.418Z,25.98
2022-08-17T07:21:38.686Z,26.30
2022-08-17T07:24:52.792Z,26.53
2022-08-17T07:27:59.739Z,26.67
2022-08-17T07:31:04.655Z,26.83
2022-08-17T07:34:14.463Z,27.02
2022-08-17T07:37:19.556Z,27.28
2022-08-17T07:40:34.051Z,27.34
2022-08-17T07:43:39.547Z,27.61
2022-08-17T07:47:12.323Z,27.78
2022-08-17T07:50:29.269Z,28.06
2022-08-17T07:53:32.065Z,28.13
2022-08-17T07:56:53.531Z,28.14
2022-08-17T08:00:02.131Z,28.30
2022-08-17T08:03:27.311Z,28.49
2022-08-17T08:06:37.901Z,28.80
2022-08-17T08:09:42.569Z,28.91
2022-08-17T08:12:48.307Z,29.09
2022-08-17T08:16:19.807Z,29.18
2022-08-17T08:19:25.565Z,29.37
2022-08-17T08:23:02.991Z,29.41
2022-08-17T08:26:33.800Z,29.39
2022-08-17T08:29:39.821Z,29.47
2022-08-17T08:33:12.552Z,29.52
2022-08-17T08:37:14.295Z,29.81
2022-08-17T08:40:18.023Z,29.98
2022-08-17T08:43:52.860Z,30.10
2022-08-17T08:47:07.361Z,30.37
2022-08-17T08:50:40.269Z,30.38
2022-08-17T08:54:05.966Z,30.06
2022-08-17T08:57:24.366Z,30.24
2022-08-17T09:00:36.131Z,30.48
2022-08-17T09:03:52.795Z,30.74
2022-08-17T09:07:39.080Z,30.95
2022-08-17T09:11:04.918Z,31.21
2022-08-17T09:14:21.478Z,31.43
2022-08-17T09:17:36.157Z,31.41
2022-08-17T09:20:50.305Z,31.69
2022-08-17T09:24:00.110Z,31.88
2022-08-17T09:27:19.641Z,31.61
2022-08-17T09:30:33.613Z,31.55
2022-08-17T09:33:43.228Z,31.61
2022-08-17T09:36:56.460Z,31.76
2022-08-17T09:40:17.309Z,32.00
2022-08-17T09:43:36.363Z,32.38
2022-08-17T09:46:53.344Z,32.40
2022-08-17T09:50:01.549Z,32.50
2022-08-17T09:53:04.439Z,32.66
2022-08-17T09:56:10.114Z,32.60
2022-08-17T09:59:45.958Z,32.69
2022-08-17T10:03:26.051Z,32.68
2022-08-17T10:06:33.623Z,32.71
2022-08-17T10:09:39.190Z,32.72
2022-08-17T10:12:47.104Z,32.63
2022-08-17T10:16:01.894Z,32.67
2022-08-17T10:19:23.033Z,32.77
2022-08-17T10:22:54.999Z,32.69
2022-08-17T10:26:16.596Z,32.98
2022-08-17T10:29:26.917Z,33.17
2022-08-17T10:32:46.038Z,33.32
2022-08-17T10:35:52.802Z,33.33
2022-08-17T10:39:21.301Z,33.25
2022-08-17T10:42:33.332Z,33.30
2022-08-17T10:45:51.473Z,33.73
2022-08-17T10:49:29.399Z,33.99
2022-08-17T10:52:32.301Z,33.95
2022-08-17T10:55:34.868Z,34.09
2022-08-17T10:58:59.193Z,34.17
2022-08-17T11:02:04.637Z,34.27
2022-08-17T11:05:44.226Z,34.26
2022-08-17T11:09:02.757Z,34.22
2022-08-17T11:12:31.185Z,34.22
2022-08-17T11:15:52.139Z,34.50
2022-08-17T11:19:52.374Z,34.68
2022-08-17T11:23:19.669Z,34.51
2022-08-17T11:26:27.271Z,34.70
2022-08-17T11:29:37.468Z,34.30
2022-08-17T11:32:54.583Z,34.08
2022-08-17T11:36:33.344Z,34.28
2022-08-17T11:40:13.220Z,34.64
2022-08-17T11:43:38.355Z,34.74
2022-08-17T11:47:36.595Z,34.55
2022-08-17T11:51:12.362Z,34.74
2022-08-17T11:54:34.678Z,34.90
2022-08-17T11:57:40.371Z,34.81
2022-08-17T12:00:46.427Z,34.81
2022-08-17T12:03:55.906Z,34.37
2022-08-17T12:07:16.789Z,34.44
2022-08-17T12:10:31.676Z,34.69
2022-08-17T12:13:47.783Z,35.00
2022-08-17T12:17:05.527Z,35.20
2022-08-17T12:20:15.560Z,34.99
2022-08-17T12:23:41.454Z,34.74
2022-08-17T12:26:57.028Z,34.75
2022-08-17T12:30:09.686Z,34.85
2022-08-17T12:33:28.134Z,34.91
2022-08-17T12:36:33.838Z,35.04
2022-08-17T12:40:11.401Z,34.82
2022-08-17T12:43:27.486Z,34.48
2022-08-17T12:46:44.779Z,34.43
2022-08-17T12:49:51.403Z,34.58
2022-08-17T12:52:59.734Z,34.25
2022-08-17T12:56:12.060Z,34.16
2022-08-17T12:59:15.660Z,34.30
2022-08-17T13:02:47.267Z,33.86
2022-08-17T13:05:52.528Z,33.57
2022-08-17T13:08:55.478Z,33.81
2022-08-17T13:12:02.226Z,34.28
2022-08-17T13:15:05.636Z,34.33
2022-08-17T13:18:33.810Z,34.31
2022-08-17T13:21:37.999Z,34.39
2022-08-17T13:24:53.082Z,34.39
2022-08-17T13:27:56.797Z,34.27
2022-08-17T13:31:27.851Z,34.38
2022-08-17T13:35:14.219Z,34.83
2022-08-17T13:38:37.587Z,35.14
2022-08-17T13:41:40.663Z,35.31
2022-08-17T13:44:43.272Z,35.47
2022-08-17T13:47:46.190Z,35.43
2022-08-17T13:50:56.342Z,35.28
2022-08-17T13:54:02.690Z,35.52
2022-08-17T13:57:07.405Z,35.42
2022-08-17T14:00:30.677Z,35.29
2022-08-17T14:03:33.569Z,35.04
2022-08-17T14:07:15.444Z,34.98
2022-08-17T14:10:18.929Z,35.00
2022-08-17T14:13:21.482Z,35.28
2022-08-17T14:16:24.328Z,35.73
2022-08-17T14:19:26.953Z,35.82
2022-08-17T14:22:32.351Z,35.47
2022-08-17T14:25:35.141Z,35.68
2022-08-17T14:28:38.805Z,35.59
2022-08-17T14:31:54.297Z,35.60
2022-08-17T14:34:59.586Z,35.79
2022-08-17T14:38:02.277Z,35.62
2022-08-17T14:41:05.484Z,35.68
2022-08-17T14:44:12.470Z,36.03
2022-08-17T14:47:15.945Z,35.99
2022-08-17T14:50:21.144Z,35.94
2022-08-17T14:53:25.155Z,35.85
2022-08-17T14:56:28.212Z,36.10
2022-08-17T14:59:38.182Z,36.11
2022-08-17T15:02:53.778Z,36.21
2022-08-17T15:05:56.845Z,36.45
2022-08-17T15:08:59.415Z,36.78
2022-08-17T15:12:03.787Z,37.18
2022-08-17T15:15:09.262Z,37.93
2022-08-17T15:18:12.546Z,38.09
2022-08-17T15:21:15.975Z,38.34
2022-08-17T15:24:19.006Z,38.91
2022-08-17T15:27:24.229Z,39.47
2022-08-17T15:30:36.202Z,40.33
2022-08-17T15:33:38.795Z,42.58
2022-08-17T15:36:49.491Z,44.89
2022-08-17T15:39:53.049Z,46.02
2022-08-17T15:42:57.778Z,46.68
2022-08-17T15:46:12.344Z,47.55
2022-08-17T15:49:15.485Z,48.12
2022-08-17T15:52:26.488Z,48.04
2022-08-17T15:55:31.162Z,48.08
2022-08-17T15:58:35.511Z,48.15
2022-08-17T16:03:01.076Z,48.17
2022-08-17T16:05:13.962Z,48.52
2022-08-17T16:08:21.375Z,47.97
2022-08-17T16:11:24.660Z,47.98
2022-08-17T16:14:33.845Z,48.21
2022-08-17T16:17:39.709Z,47.92
2022-08-17T16:20:44.364Z,48.14
2022-08-17T16:23:49.611Z,48.21
2022-08-17T16:26:52.124Z,47.38
2022-08-17T16:29:55.537Z,47.42
2022-08-17T16:33:00.610Z,47.39
2022-08-17T16:36:03.900Z,47.21
2022-08-17T16:39:07.462Z,45.94
2022-08-17T16:42:28.990Z,44.60
2022-08-17T16:45:40.241Z,42.30
2022-08-17T16:48:44.434Z,40.11
2022-08-17T16:51:48.432Z,38.76
2022-08-17T16:54:52.010Z,37.53
2022-08-17T16:57:54.582Z,36.58
2022-08-17T17:00:59.505Z,35.67
2022-08-17T17:04:05.425Z,35.00
2022-08-17T17:07:38.022Z,34.49
2022-08-17T17:10:53.197Z,34.03
2022-08-17T17:13:59.988Z,33.54
2022-08-17T17:17:06.013Z,33.15
2022-08-17T17:20:21.754Z,32.91
2022-08-17T17:23:35.644Z,32.68
2022-08-17T17:26:53.857Z,32.36
2022-08-17T17:29:56.327Z,32.01
2022-08-17T17:33:05.937Z,31.73
2022-08-17T17:36:27.185Z,31.48
2022-08-17T17:39:59.898Z,31.34
2022-08-17T17:43:34.893Z,31.09
2022-08-17T17:46:39.957Z,30.85
2022-08-17T17:49:46.027Z,30.61
2022-08-17T17:53:09.566Z,30.39
2022-08-17T17:56:43.015Z,30.18
2022-08-17T17:59:59.091Z,29.97
2022-08-17T18:03:11.081Z,29.73
2022-08-17T18:06:40.934Z,29.56
2022-08-17T18:10:04.451Z,29.31
2022-08-17T18:14:01.914Z,29.11
2022-08-17T18:17:06.509Z,28.89
2022-08-17T18:20:09.502Z,28.67
2022-08-17T18:23:12.685Z,28.55
2022-08-17T18:26:34.270Z,28.40
2022-08-17T18:29:42.759Z,28.26
2022-08-17T18:32:46.745Z,28.14
2022-08-17T18:35:59.275Z,28.01
2022-08-17T18:39:16.555Z,27.92
2022-08-17T18:42:28.641Z,27.82
2022-08-17T18:45:41.019Z,27.72
2022-08-17T18:48:53.554Z,27.58
2022-08-17T18:52:27.677Z,27.48
2022-08-17T18:55:31.304Z,27.38
2022-08-17T18:58:34.589Z,27.27
2022-08-17T19:02:08.945Z,27.16
2022-08-17T19:05:33.077Z,27.04
2022-08-17T19:08:38.156Z,26.92
2022-08-17T19:11:41.044Z,26.81
2022-08-17T19:14:44.035Z,26.74
2022-08-17T19:17:55.363Z,26.67
2022-08-17T19:21:07.789Z,26.59
2022-08-17T19:24:19.618Z,26.52
2022-08-17T19:27:46.507Z,26.43
2022-08-17T19:31:04.009Z,26.31
2022-08-17T19:34:06.581Z,26.17
2022-08-17T19:37:29.452Z,26.13
2022-08-17T19:40:56.073Z,26.08
2022-08-17T19:44:32.887Z,26.06
2022-08-17T19:48:04.317Z,26.00
2022-08-17T19:51:17.837Z,25.92
2022-08-17T19:54:42.210Z,25.85
2022-08-17T19:57:54.354Z,25.79
2022-08-17T20:00:57.669Z,25.79
2022-08-17T20:04:11.573Z,25.74
2022-08-17T20:07:20.932Z,25.71
2022-08-17T20:10:37.292Z,25.60
2022-08-17T20:14:03.765Z,25.57
2022-08-17T20:17:06.914Z,25.49
2022-08-17T20:20:37.732Z,25.38
2022-08-17T20:24:03.153Z,25.36
2022-08-17T20:27:18.481Z,25.30
2022-08-17T20:30:40.809Z,25.25
2022-08-17T20:33:43.851Z,25.15
2022-08-17T20:37:24.118Z,25.11
2022-08-17T20:40:31.204Z,25.05
2022-08-17T20:43:33.983Z,25.00
2022-08-17T20:46:36.498Z,24.94
2022-08-17T20:49:49.340Z,24.90
2022-08-17T20:53:00.402Z,24.85
2022-08-17T20:56:03.390Z,24.78
2022-08-17T20:59:05.959Z,24.70
2022-08-17T21:02:19.985Z,24.63
2022-08-17T21:05:34.462Z,24.61
2022-08-17T21:08:53.201Z,24.58
2022-08-17T21:12:04.469Z,24.52
2022-08-17T21:15:23.731Z,24.47
2022-08-17T21:18:51.748Z,24.39
2022-08-17T21:22:16.572Z,24.32
2022-08-17T21:25:43.019Z,24.25
2022-08-17T21:29:01.724Z,24.19
2022-08-17T21:32:30.067Z,24.14
2022-08-17T21:36:00.344Z,24.12
2022-08-17T21:39:09.940Z,24.08
2022-08-17T21:42:12.996Z,24.08
2022-08-17T21:45:27.431Z,24.00
2022-08-17T21:48:40.757Z,23.93
2022-08-17T21:51:55.309Z,23.86
2022-08-17T21:55:03.310Z,23.83
2022-08-17T21:58:28.833Z,23.77
2022-08-17T22:01:50.609Z,23.71
2022-08-17T22:05:02.872Z,23.61
2022-08-17T22:08:09.677Z,23.54
2022-08-17T22:11:19.606Z,23.49
2022-08-17T22:14:53.444Z,23.44
2022-08-17T22:17:58.580Z,23.41
2022-08-17T22:21:05.224Z,23.32
2022-08-17T22:24:21.636Z,23.28
2022-08-17T22:27:45.808Z,23.24
2022-08-17T22:31:04.391Z,23.17
2022-08-17T22:34:14.523Z,23.12
2022-08-17T22:37:27.940Z,23.06
2022-08-17T22:40:32.907Z,23.08
2022-08-17T22:43:38.492Z,22.97
2022-08-17T22:46:56.519Z,22.96
2022-08-17T22:50:02.513Z,22.96
2022-08-17T22:53:38.025Z,22.93
2022-08-17T22:57:11.736Z,23.20
2022-08-17T23:00:28.908Z,23.23
2022-08-17T23:03:31.800Z,23.20
2022-08-17T23:06:36.044Z,23.15
2022-08-17T23:09:39.380Z,23.13
2022-08-17T23:12:42.219Z,23.05
2022-08-17T23:15:45.907Z,23.01
2022-08-17T23:18:52.244Z,23.07
2022-08-17T23:21:57.161Z,23.05
2022-08-17T23:24:59.855Z,23.11
2022-08-17T23:28:05.368Z,23.03
2022-08-17T23:31:07.940Z,22.95
2022-08-17T23:34:13.518Z,22.91
2022-08-17T23:37:19.929Z,22.84
2022-08-17T23:40:27.645Z,22.74
2022-08-17T23:43:31.614Z,22.68
2022-08-17T23:46:34.731Z,22.59
2022-08-17T23:49:37.589Z,22.67
2022-08-17T23:52:43.220Z,22.57
2022-08-17T23:55:46.365Z,22.49
2022-08-17T23:59:09.225Z,22.37
